Time;durP1;ratioP1;P1;durP2;ratioP2;P2;SDS_P1;SDS_P2;PMS_P1;PMS_P2;Temp;Humidity;BMP_temperature;BMP_pressure;BME280_temperature;BME280_humidity;BME280_pressure;Samples;Min_cycle;Max_cycle;Signal;HPM_P1;HPM_P2
2022/03/01 00:02:16;;;;;;;14.37;7.80;;;;;;;1.96;53.32;99718.78;5030641;28;20188;-62
2022/03/01 00:04:44;;;;;;;12.47;7.17;;;;;;;1.98;52.29;99716.97;5029857;28;20258;-62
2022/03/01 00:07:10;;;;;;;12.07;7.30;;;;;;;1.96;52.58;99723.13;5030909;28;20276;-62
2022/03/01 00:09:37;;;;;;;14.90;7.60;;;;;;;1.97;52.44;99732.53;5024082;28;20193;-62
2022/03/01 00:12:06;;;;;;;13.40;7.43;;;;;;;1.89;52.23;99730.25;5027770;28;20674;-62
2022/03/01 00:14:33;;;;;;;13.77;7.50;;;;;;;1.79;53.34;99727.28;5029591;28;20208;-62
2022/03/01 00:17:01;;;;;;;15.43;7.40;;;;;;;1.81;54.10;99728.03;5029060;28;20242;-62
2022/03/01 00:19:29;;;;;;;12.10;7.00;;;;;;;1.78;52.58;99725.59;5031027;28;20190;-61
2022/03/01 00:21:56;;;;;;;12.73;7.07;;;;;;;1.72;52.92;99731.03;5030650;28;20293;-61
2022/03/01 00:24:23;;;;;;;17.57;7.67;;;;;;;1.75;52.55;99723.97;5029101;28;20184;-61
2022/03/01 00:26:50;;;;;;;14.33;7.13;;;;;;;1.58;54.13;99729.88;5030243;28;20195;-62
2022/03/01 00:29:17;;;;;;;13.87;6.93;;;;;;;1.44;55.27;99733.06;5029559;28;20395;-62
2022/03/01 00:31:44;;;;;;;11.17;6.03;;;;;;;1.28;57.39;99738.00;5030349;28;20606;-62
2022/03/01 00:34:12;;;;;;;11.67;6.83;;;;;;;1.12;57.42;99740.38;5027909;28;20188;-63
2022/03/01 00:36:39;;;;;;;10.10;5.97;;;;;;;0.97;57.92;99733.28;5029968;28;20200;-62
2022/03/01 00:39:07;;;;;;;9.37;5.90;;;;;;;0.84;57.41;99740.66;5029347;28;20189;-63
2022/03/01 00:41:34;;;;;;;11.40;6.30;;;;;;;0.75;59.60;99739.28;5030021;28;20207;-62
2022/03/01 00:44:01;;;;;;;12.17;6.67;;;;;;;1.03;55.44;99738.19;5028503;28;20192;-62
2022/03/01 00:46:28;;;;;;;12.47;6.57;;;;;;;0.81;57.06;99740.78;5029119;28;20569;-62
2022/03/01 00:48:55;;;;;;;10.87;5.57;;;;;;;0.80;56.17;99736.53;5029985;28;20565;-62
2022/03/01 00:51:24;;;;;;;12.50;5.97;;;;;;;0.86;56.21;99737.13;5030118;28;20189;-62
2022/03/01 00:53:51;;;;;;;13.00;6.00;;;;;;;0.84;56.09;99733.78;5028613;28;20665;-62
2022/03/01 00:56:18;;;;;;;13.43;5.90;;;;;;;0.81;57.04;99730.50;5029877;28;20212;-62
2022/03/01 00:58:45;;;;;;;11.50;6.17;;;;;;;0.82;55.89;99735.56;5030257;28;20189;-63
2022/03/01 01:01:12;;;;;;;11.93;6.00;;;;;;;0.81;56.21;99731.31;5029983;28;20211;-62
2022/03/01 01:03:39;;;;;;;12.03;5.87;;;;;;;0.68;57.41;99736.13;5029183;28;20185;-62
2022/03/01 01:06:06;;;;;;;12.33;5.73;;;;;;;0.67;57.47;99733.59;5029467;28;20217;-62
2022/03/01 01:08:34;;;;;;;11.83;5.47;;;;;;;0.53;57.59;99747.00;5029579;28;20192;-62
2022/03/01 01:11:00;;;;;;;15.13;5.97;;;;;;;0.40;57.75;99741.50;5020932;28;20189;-62
2022/03/01 01:13:27;;;;;;;10.73;5.37;;;;;;;0.48;56.27;99743.75;5029400;28;20201;-62
2022/03/01 01:15:54;;;;;;;12.00;6.17;;;;;;;0.52;56.26;99737.63;5028627;28;20218;-63
2022/03/01 01:18:21;;;;;;;10.23;5.10;;;;;;;0.48;57.53;99738.63;5029478;28;20722;-62
2022/03/01 01:20:48;;;;;;;11.73;5.90;;;;;;;0.44;56.96;99743.88;5029969;28;20568;-63
2022/03/01 01:23:18;;;;;;;13.33;6.37;;;;;;;0.54;56.16;99754.63;5029099;28;20203;-63
2022/03/01 01:25:47;;;;;;;9.33;5.40;;;;;;;0.51;57.92;99753.91;5029574;28;20321;-63
2022/03/01 01:28:14;;;;;;;12.33;5.47;;;;;;;0.70;54.62;99742.03;5029580;28;20542;-63
2022/03/01 01:30:41;;;;;;;12.03;6.03;;;;;;;0.83;54.70;99749.28;5029596;28;20183;-62
2022/03/01 01:33:08;;;;;;;9.67;5.17;;;;;;;0.91;54.65;99736.94;5029024;28;20195;-62
2022/03/01 01:35:36;;;;;;;11.53;6.03;;;;;;;0.87;54.57;99746.50;5029491;28;20217;-63
2022/03/01 01:38:04;;;;;;;10.73;4.83;;;;;;;0.90;55.22;99744.72;5029284;28;20191;-63
2022/03/01 01:40:33;;;;;;;11.97;5.70;;;;;;;0.83;55.18;99744.94;5029664;28;20215;-62
2022/03/01 01:43:04;;;;;;;13.80;6.33;;;;;;;0.91;54.61;99742.09;5029227;28;20666;-62
2022/03/01 01:45:31;;;;;;;11.60;6.37;;;;;;;0.80;55.83;99741.69;5028920;28;20209;-62
2022/03/01 01:48:00;;;;;;;12.30;6.77;;;;;;;0.94;53.82;99747.09;5029505;28;20198;-63
2022/03/01 01:50:28;;;;;;;13.40;6.50;;;;;;;0.88;53.75;99737.88;5029788;28;20190;-62
2022/03/01 01:52:55;;;;;;;13.33;6.33;;;;;;;1.04;53.14;99745.00;5028561;28;20604;-63
2022/03/01 01:55:24;;;;;;;13.70;6.17;;;;;;;0.98;53.77;99742.66;5029351;28;20259;-62
2022/03/01 01:57:51;;;;;;;11.70;6.27;;;;;;;1.07;53.95;99749.16;5031800;28;20213;-62
2022/03/01 02:00:19;;;;;;;12.83;6.60;;;;;;;1.15;51.67;99754.81;5032973;28;20193;-62
2022/03/01 02:02:46;;;;;;;13.73;6.57;;;;;;;1.49;50.54;99761.16;5032686;28;20270;-63
2022/03/01 02:05:13;;;;;;;11.43;6.30;;;;;;;1.27;51.90;99756.91;5032598;28;20235;-63
2022/03/01 02:07:46;;;;;;;15.87;6.47;;;;;;;1.25;51.82;99752.72;5032738;28;20189;-63
2022/03/01 02:10:13;;;;;;;13.13;6.20;;;;;;;1.11;53.16;99753.28;5033244;28;20191;-60
2022/03/01 02:12:39;;;;;;;13.17;6.47;;;;;;;1.09;52.29;99755.06;5023551;28;20459;-61
2022/03/01 02:15:08;;;;;;;9.20;5.67;;;;;;;1.11;52.35;99758.41;5031949;28;20260;-61
2022/03/01 02:17:39;;;;;;;14.83;5.93;;;;;;;1.03;54.26;99743.31;5032971;28;20181;-60
2022/03/01 02:20:12;;;;;;;10.53;6.43;;;;;;;0.94;53.74;99741.97;5033332;28;20658;-61
2022/03/01 02:22:39;;;;;;;10.80;5.97;;;;;;;0.77;55.49;99741.78;5032350;28;20213;-61
2022/03/01 02:25:07;;;;;;;11.90;6.30;;;;;;;0.70;54.08;99743.75;5032352;28;20769;-61
2022/03/01 02:27:34;;;;;;;12.27;6.47;;;;;;;0.79;52.97;99737.44;5032963;28;20190;-61
2022/03/01 02:30:01;;;;;;;14.20;6.40;;;;;;;0.79;54.09;99747.72;5032174;28;20201;-61
2022/03/01 02:32:28;;;;;;;10.10;5.63;;;;;;;0.68;55.06;99741.25;5033081;28;20651;-61
2022/03/01 02:34:55;;;;;;;14.53;5.70;;;;;;;0.66;55.69;99740.47;5031680;28;20212;-61
2022/03/01 02:37:23;;;;;;;12.13;6.77;;;;;;;0.64;54.97;99737.13;5032577;28;20193;-61
2022/03/01 02:39:49;;;;;;;12.93;6.07;;;;;;;0.56;55.64;99740.00;5032136;28;20188;-62
2022/03/01 02:42:16;;;;;;;13.23;6.10;;;;;;;0.57;55.11;99735.69;5031979;28;20298;-61
2022/03/01 02:44:43;;;;;;;10.93;5.53;;;;;;;0.69;53.91;99734.38;5031148;28;20212;-61
2022/03/01 02:47:10;;;;;;;13.67;5.93;;;;;;;0.63;55.12;99735.47;5032670;28;20189;-61
2022/03/01 02:49:37;;;;;;;10.03;5.40;;;;;;;0.58;55.57;99730.50;5032631;28;20232;-62
2022/03/01 02:52:07;;;;;;;11.47;5.43;;;;;;;0.46;55.66;99732.72;5032227;28;20185;-62
2022/03/01 02:54:35;;;;;;;10.37;5.57;;;;;;;0.36;57.18;99730.50;5030403;28;20208;-62
2022/03/01 02:57:03;;;;;;;11.80;5.60;;;;;;;0.21;58.59;99731.06;5032591;28;20267;-62
2022/03/01 02:59:30;;;;;;;7.37;4.33;;;;;;;0.07;59.66;99726.47;5031949;28;20182;-62
2022/03/01 03:01:58;;;;;;;14.40;5.53;;;;;;;-0.09;59.63;99733.91;5032499;28;20216;-62
2022/03/01 03:04:25;;;;;;;15.97;6.03;;;;;;;-0.25;59.93;99726.75;5030937;28;20212;-62
2022/03/01 03:06:52;;;;;;;8.77;5.00;;;;;;;-0.39;61.99;99724.66;5031169;28;20640;-62
2022/03/01 03:09:21;;;;;;;8.37;4.63;;;;;;;-0.57;62.52;99725.31;5030813;28;20200;-62
2022/03/01 03:11:50;;;;;;;10.93;5.03;;;;;;;-0.53;62.18;99724.31;5029000;28;20184;-62
2022/03/01 03:14:17;;;;;;;13.10;5.47;;;;;;;-0.77;61.89;99717.38;5024287;28;20196;-62
2022/03/01 03:16:44;;;;;;;10.67;5.20;;;;;;;-0.81;60.24;99717.56;5030868;28;20621;-62
2022/03/01 03:19:15;;;;;;;10.27;5.37;;;;;;;-0.89;60.06;99722.91;5031982;28;20184;-62
2022/03/01 03:21:42;;;;;;;9.63;4.70;;;;;;;-0.91;59.97;99723.00;5031470;28;20243;-62
2022/03/01 03:24:09;;;;;;;9.43;5.20;;;;;;;-1.00;60.22;99720.72;5030787;28;20184;-62
2022/03/01 03:26:36;;;;;;;9.37;5.17;;;;;;;-1.05;61.63;99725.16;5032034;28;20192;-62
2022/03/01 03:29:08;;;;;;;12.57;5.57;;;;;;;-1.05;61.25;99723.41;5031236;28;20188;-62
2022/03/01 03:31:36;;;;;;;13.33;5.80;;;;;;;-1.09;61.33;99718.47;5030608;28;20275;-62
2022/03/01 03:34:03;;;;;;;13.50;5.93;;;;;;;-1.12;61.03;99721.13;5030464;28;20267;-62
2022/03/01 03:36:30;;;;;;;10.70;5.33;;;;;;;-1.11;61.70;99727.91;5031538;28;20263;-62
2022/03/01 03:38:57;;;;;;;8.13;5.03;;;;;;;-1.21;61.59;99730.78;5031994;28;20274;-62
2022/03/01 03:41:24;;;;;;;11.80;5.10;;;;;;;-1.22;60.28;99712.91;5031855;28;20245;-63
2022/03/01 03:43:50;;;;;;;9.70;4.80;;;;;;;-1.34;61.26;99714.97;5030747;28;20190;-62
2022/03/01 03:46:20;;;;;;;10.23;4.70;;;;;;;-1.40;61.81;99719.44;5031102;28;20692;-62
2022/03/01 03:48:47;;;;;;;12.40;5.00;;;;;;;-1.39;63.22;99714.28;5031312;28;20268;-62
2022/03/01 03:51:14;;;;;;;9.47;4.93;;;;;;;-1.46;63.74;99714.50;5031065;28;20192;-62
2022/03/01 03:53:41;;;;;;;10.70;4.90;;;;;;;-1.61;61.70;99708.13;5030676;28;20196;-62
2022/03/01 03:56:08;;;;;;;7.97;4.70;;;;;;;-1.76;61.16;99705.16;5030940;28;20693;-62
2022/03/01 03:58:35;;;;;;;9.50;4.70;;;;;;;-1.76;62.27;99701.75;5030017;28;20191;-62
2022/03/01 04:01:02;;;;;;;9.00;5.10;;;;;;;-1.83;62.32;99704.50;5031027;28;20187;-62
2022/03/01 04:03:30;;;;;;;11.45;4.80;;;;;;;-1.86;62.27;99698.63;5030466;28;20434;-62
2022/03/01 04:05:56;;;;;;;10.53;4.50;;;;;;;-1.90;61.88;99697.03;5030126;28;20219;-62
2022/03/01 04:08:23;;;;;;;7.00;4.30;;;;;;;-2.01;61.96;99698.19;5028975;28;20203;-62
2022/03/01 04:10:50;;;;;;;8.63;4.37;;;;;;;-2.09;61.81;99695.00;5028347;28;20263;-62
2022/03/01 04:13:17;;;;;;;9.63;4.80;;;;;;;-2.12;62.93;99700.25;5026725;28;20258;-62
2022/03/01 04:15:44;;;;;;;9.17;4.63;;;;;;;-2.12;64.34;99697.69;5029011;28;20216;-62
2022/03/01 04:18:11;;;;;;;9.67;4.50;;;;;;;-2.00;62.64;99697.31;5031223;28;20188;-62
2022/03/01 04:21:01;;;;;;;9.20;4.70;;;;;;;-2.02;61.41;99701.63;5030944;28;20219;-63
2022/03/01 04:23:28;;;;;;;9.37;4.53;;;;;;;-2.12;61.90;99703.63;5030333;28;20628;-63
2022/03/01 04:25:55;;;;;;;8.43;4.23;;;;;;;-2.22;61.68;99704.75;5030631;28;20246;-63
2022/03/01 04:28:22;;;;;;;10.20;4.60;;;;;;;-2.27;62.57;99696.38;5030964;28;20188;-63
2022/03/01 04:30:49;;;;;;;7.33;4.43;;;;;;;-2.31;60.78;99697.34;5031155;28;20187;-63
2022/03/01 04:33:16;;;;;;;8.27;4.17;;;;;;;-2.34;60.35;99689.75;5030140;28;20198;-63
2022/03/01 04:35:42;;;;;;;8.97;4.40;;;;;;;-2.37;62.20;99686.41;5030466;28;20208;-63
2022/03/01 04:38:10;;;;;;;9.97;4.13;;;;;;;-2.20;65.05;99686.84;5028589;28;20246;-63
2022/03/01 04:40:37;;;;;;;7.50;4.17;;;;;;;-2.19;64.76;99686.78;5029160;28;20652;-63
2022/03/01 04:43:04;;;;;;;9.63;4.40;;;;;;;-2.25;62.47;99681.81;5028922;28;20215;-64
2022/03/01 04:45:31;;;;;;;8.70;3.83;;;;;;;-2.33;63.64;99682.06;5029667;28;20209;-63
2022/03/01 04:47:58;;;;;;;104.03;36.40;;;;;;;-2.19;63.40;99675.72;5029982;28;20679;-63
2022/03/01 04:50:26;;;;;;;36.13;13.57;;;;;;;-2.33;64.57;99671.81;5029979;28;20551;-63
2022/03/01 04:52:52;;;;;;;12.43;5.90;;;;;;;-2.36;62.89;99671.91;5029205;28;20193;-63
2022/03/01 04:55:21;;;;;;;11.27;5.07;;;;;;;-2.29;59.89;99667.44;5029259;28;20227;-63
2022/03/01 04:57:47;;;;;;;8.87;4.23;;;;;;;-2.31;64.61;99667.50;5029910;28;20210;-64
2022/03/01 05:00:15;;;;;;;9.70;4.63;;;;;;;-2.40;64.34;99672.88;5029941;28;20202;-64
2022/03/01 05:02:47;;;;;;;8.13;4.23;;;;;;;-2.39;63.40;99679.66;5029239;28;20203;-63
2022/03/01 05:05:15;;;;;;;11.02;5.45;;;;;;;-2.46;64.83;99675.59;5028503;28;20433;-64
2022/03/01 05:07:44;;;;;;;8.27;4.40;;;;;;;-2.56;62.51;99678.41;5029539;28;20230;-64
2022/03/01 05:10:12;;;;;;;10.93;4.60;;;;;;;-2.56;62.92;99680.97;5030004;28;20195;-64
2022/03/01 05:12:45;;;;;;;8.77;3.90;;;;;;;-2.59;63.67;99673.38;5029265;28;20189;-63
2022/03/01 05:15:12;;;;;;;8.53;4.53;;;;;;;-2.58;64.36;99671.66;5029037;28;20199;-64
2022/03/01 05:17:40;;;;;;;9.10;4.00;;;;;;;-2.66;64.81;99674.41;5029508;28;20677;-64
2022/03/01 05:20:09;;;;;;;8.10;4.07;;;;;;;-2.70;64.37;99675.38;5029465;28;20180;-64
2022/03/01 05:22:36;;;;;;;9.67;4.20;;;;;;;-2.67;64.72;99680.41;5029506;28;20393;-63
2022/03/01 05:25:04;;;;;;;8.97;4.00;;;;;;;-2.71;63.66;99674.56;5029144;28;20292;-63
2022/03/01 05:27:31;;;;;;;6.70;4.03;;;;;;;-2.75;62.29;99670.41;5030155;28;20603;-63
2022/03/01 05:29:59;;;;;;;9.10;3.70;;;;;;;-2.82;63.60;99669.72;5029730;28;20215;-64
2022/03/01 05:32:27;;;;;;;10.07;4.43;;;;;;;-2.83;64.55;99672.31;5032079;28;20182;-63
2022/03/01 05:34:53;;;;;;;9.77;4.60;;;;;;;-2.94;64.96;99677.69;5030946;28;20498;-63
2022/03/01 05:37:20;;;;;;;9.57;4.03;;;;;;;-3.04;64.79;99678.81;5033376;28;20233;-63
2022/03/01 05:39:47;;;;;;;11.07;4.20;;;;;;;-3.03;66.37;99685.59;5033818;28;20188;-63
2022/03/01 05:42:14;;;;;;;9.07;4.40;;;;;;;-3.09;67.56;99691.69;5032272;28;20219;-63
2022/03/01 05:44:41;;;;;;;8.53;4.73;;;;;;;-3.01;67.09;99694.06;5029875;28;20246;-63
2022/03/01 05:47:09;;;;;;;10.13;4.60;;;;;;;-3.02;65.94;99694.94;5032491;28;20311;-64
2022/03/01 05:49:36;;;;;;;9.03;4.17;;;;;;;-3.03;66.39;99700.91;5033330;28;20245;-64
2022/03/01 05:52:04;;;;;;;7.97;4.13;;;;;;;-3.13;66.82;99703.69;5031498;28;20227;-63
2022/03/01 05:54:31;;;;;;;8.97;3.50;;;;;;;-3.20;66.87;99702.19;5029794;28;20308;-63
2022/03/01 05:56:57;;;;;;;8.50;4.27;;;;;;;-3.33;67.40;99700.81;5032970;28;20669;-63
2022/03/01 05:59:24;;;;;;;9.53;4.20;;;;;;;-3.37;67.94;99709.41;5033471;28;20210;-63
2022/03/01 06:01:51;;;;;;;11.13;5.97;;;;;;;-3.34;68.86;99705.06;5033493;28;20679;-63
2022/03/01 06:04:19;;;;;;;10.63;4.80;;;;;;;-3.34;68.38;99706.78;5031919;28;20187;-63
2022/03/01 06:06:46;;;;;;;9.20;4.67;;;;;;;-3.34;68.49;99706.78;5033619;28;20195;-66
2022/03/01 06:09:13;;;;;;;8.17;4.50;;;;;;;-3.36;68.06;99708.53;5033295;28;20200;-64
2022/03/01 06:11:40;;;;;;;6.37;3.60;;;;;;;-3.43;68.51;99706.13;5031679;28;20187;-63
2022/03/01 06:14:07;;;;;;;10.00;4.67;;;;;;;-3.38;68.64;99716.22;5031683;28;20671;-62
2022/03/01 06:16:34;;;;;;;9.33;3.90;;;;;;;-3.31;68.43;99711.81;5032958;28;20194;-63
2022/03/01 06:19:00;;;;;;;10.47;5.23;;;;;;;-3.38;68.67;99725.59;5033450;28;20201;-63
2022/03/01 06:21:30;;;;;;;11.80;5.10;;;;;;;-3.29;68.04;99715.19;5032937;28;20184;-63
2022/03/01 06:23:57;;;;;;;9.20;4.10;;;;;;;-3.25;67.88;99721.88;5031890;28;20219;-63
2022/03/01 06:26:25;;;;;;;11.40;5.23;;;;;;;-3.20;67.60;99725.19;5032759;28;20262;-63
2022/03/01 06:28:52;;;;;;;7.97;4.43;;;;;;;-3.23;66.36;99730.34;5032955;28;20187;-63
2022/03/01 06:31:18;;;;;;;10.30;4.20;;;;;;;-3.22;66.15;99729.47;5032858;28;20196;-63
2022/03/01 06:33:45;;;;;;;8.27;4.50;;;;;;;-3.23;66.89;99724.41;5032399;28;20183;-62
2022/03/01 06:36:12;;;;;;;8.40;4.20;;;;;;;-3.24;65.23;99723.56;5032338;28;20203;-63
2022/03/01 06:38:40;;;;;;;10.63;4.47;;;;;;;-3.19;64.47;99721.75;5032945;28;20188;-62
2022/03/01 06:41:07;;;;;;;12.00;4.50;;;;;;;-3.12;64.19;99725.81;5032647;28;20196;-62
2022/03/01 06:43:34;;;;;;;9.07;3.97;;;;;;;-3.07;65.60;99725.72;5031163;28;20210;-62
2022/03/01 06:46:01;;;;;;;9.23;4.27;;;;;;;-3.03;65.03;99723.91;5032311;28;20754;-63
2022/03/01 06:48:28;;;;;;;9.23;5.13;;;;;;;-3.05;65.17;99721.41;5032792;28;20187;-64
2022/03/01 06:50:55;;;;;;;13.90;6.10;;;;;;;-3.03;66.71;99719.66;5032613;28;20188;-63
2022/03/01 06:53:21;;;;;;;10.63;5.30;;;;;;;-2.89;66.71;99728.69;5031574;28;20183;-64
2022/03/01 06:55:50;;;;;;;9.77;4.93;;;;;;;-2.81;66.92;99729.34;5031869;28;20211;-63
2022/03/01 06:58:17;;;;;;;12.67;4.67;;;;;;;-2.84;67.03;99730.25;5032316;28;20195;-63
2022/03/01 07:00:44;;;;;;;9.27;5.20;;;;;;;-2.80;67.71;99731.03;5032430;28;20191;-66
2022/03/01 07:03:11;;;;;;;17.90;5.50;;;;;;;-2.73;67.41;99735.09;5031422;28;20225;-67
2022/03/01 07:05:37;;;;;;;10.10;5.27;;;;;;;-2.66;67.11;99730.66;5031672;28;20619;-67
2022/03/01 07:08:05;;;;;;;10.87;5.00;;;;;;;-2.68;67.65;99728.16;5032467;28;20655;-67
2022/03/01 07:10:32;;;;;;;13.57;5.10;;;;;;;-2.61;67.74;99733.94;5031988;28;20270;-66
2022/03/01 07:13:00;;;;;;;10.97;5.20;;;;;;;-2.59;66.55;99734.72;5030068;28;20210;-66
2022/03/01 07:15:27;;;;;;;11.17;5.30;;;;;;;-2.50;66.20;99725.97;5031669;28;20215;-66
2022/03/01 07:17:54;;;;;;;11.93;5.37;;;;;;;-2.43;65.82;99730.03;5032113;28;20235;-66
2022/03/01 07:20:21;;;;;;;12.53;5.63;;;;;;;-2.45;64.02;99731.81;5032030;28;20279;-67
2022/03/01 07:22:47;;;;;;;14.87;5.53;;;;;;;-2.43;64.11;99724.09;5031349;28;20568;-66
2022/03/01 07:25:14;;;;;;;12.43;5.50;;;;;;;-2.29;66.59;99729.69;5031362;28;20208;-67
2022/03/01 07:27:50;;;;;;;20.67;10.33;;;;;;;-2.25;67.06;99731.28;5031954;28;20192;-67
2022/03/01 07:30:19;;;;;;;19.93;7.63;;;;;;;-2.22;66.40;99727.78;5032102;28;20188;-67
2022/03/01 07:32:47;;;;;;;13.23;6.27;;;;;;;-2.17;67.42;99733.59;5031457;28;20184;-67
2022/03/01 07:35:14;;;;;;;11.67;5.27;;;;;;;-2.02;65.73;99723.84;5031423;28;20221;-67
2022/03/01 07:37:41;;;;;;;11.60;5.33;;;;;;;-2.06;65.90;99728.19;5031740;28;20207;-67
2022/03/01 07:40:11;;;;;;;11.67;4.97;;;;;;;-2.05;65.38;99739.28;5031713;28;20192;-66
2022/03/01 07:42:38;;;;;;;15.23;7.00;;;;;;;-1.97;63.73;99742.44;5031603;28;20203;-66
2022/03/01 07:45:06;;;;;;;12.90;6.23;;;;;;;-1.92;63.04;99740.59;5030917;28;20737;-66
2022/03/01 07:47:35;;;;;;;13.80;7.73;;;;;;;-1.96;63.42;99736.44;5031685;28;20188;-66
2022/03/01 07:50:02;;;;;;;14.60;7.40;;;;;;;-1.98;63.39;99751.84;5031694;28;20195;-66
2022/03/01 07:52:29;;;;;;;20.87;10.80;;;;;;;-1.86;65.10;99753.22;5031520;28;20194;-66
2022/03/01 07:54:56;;;;;;;25.93;12.13;;;;;;;-1.83;66.54;99753.13;5029289;28;20218;-67
2022/03/01 07:57:22;;;;;;;25.23;12.37;;;;;;;-1.83;67.55;99759.97;5031542;28;20191;-66
2022/03/01 07:59:49;;;;;;;24.93;12.23;;;;;;;-1.84;68.23;99766.81;5031568;28;20189;-66
2022/03/01 08:02:16;;;;;;;33.53;15.33;;;;;;;-1.83;69.90;99767.63;5031259;28;20234;-67
2022/03/01 08:04:44;;;;;;;28.47;12.80;;;;;;;-1.82;69.90;99770.16;5028852;28;20217;-66
2022/03/01 08:07:11;;;;;;;25.03;11.87;;;;;;;-1.79;70.36;99757.28;5028643;28;20189;-66
2022/03/01 08:09:39;;;;;;;25.27;12.70;;;;;;;-1.84;70.74;99754.03;5031076;28;20189;-66
2022/03/01 08:12:06;;;;;;;26.77;12.77;;;;;;;-1.85;70.94;99746.38;5031364;28;20216;-66
2022/03/01 08:14:35;;;;;;;26.03;12.20;;;;;;;-1.84;70.87;99748.03;5029975;28;20227;-66
2022/03/01 08:17:02;;;;;;;23.83;10.87;;;;;;;-1.79;70.36;99747.03;5031197;28;20242;-66
2022/03/01 08:19:30;;;;;;;24.13;11.10;;;;;;;-1.70;69.88;99747.66;5031137;28;20186;-66
2022/03/01 08:21:58;;;;;;;22.13;12.00;;;;;;;-1.67;70.04;99745.84;5031109;28;20188;-66
2022/03/01 08:24:25;;;;;;;29.17;15.03;;;;;;;-1.53;69.65;99753.09;5029787;28;20231;-67
2022/03/01 08:26:51;;;;;;;23.90;11.33;;;;;;;-1.43;69.27;99745.13;5031794;28;20196;-67
2022/03/01 08:29:18;;;;;;;22.40;9.90;;;;;;;-1.30;68.08;99745.63;5031254;28;20192;-67
2022/03/01 08:31:46;;;;;;;18.70;8.30;;;;;;;-1.22;67.07;99741.09;5031475;28;20716;-67
2022/03/01 08:34:14;;;;;;;16.40;7.60;;;;;;;-1.03;67.14;99738.75;5029785;28;20195;-67
2022/03/01 08:36:41;;;;;;;14.13;7.57;;;;;;;-0.96;67.03;99740.25;5030692;28;20180;-67
2022/03/01 08:39:09;;;;;;;13.90;6.90;;;;;;;-0.78;66.21;99738.78;5030836;28;20177;-66
2022/03/01 08:41:36;;;;;;;15.77;7.93;;;;;;;-0.55;64.56;99738.91;5030782;28;20191;-67
2022/03/01 08:44:03;;;;;;;15.10;8.27;;;;;;;-0.39;64.45;99732.34;5029444;28;20246;-66
2022/03/01 08:46:30;;;;;;;13.70;7.07;;;;;;;-0.18;63.02;99737.59;5030543;28;20191;-67
2022/03/01 08:48:58;;;;;;;15.40;7.13;;;;;;;0.01;62.64;99742.09;5030863;28;20267;-66
2022/03/01 08:51:26;;;;;;;32.73;14.83;;;;;;;0.21;61.85;99743.91;5030608;28;20657;-67
2022/03/01 08:53:54;;;;;;;21.30;10.73;;;;;;;0.47;60.92;99747.22;5029661;28;20227;-67
2022/03/01 08:56:22;;;;;;;26.73;12.47;;;;;;;0.57;63.40;99753.69;5030198;28;20219;-67
2022/03/01 08:58:49;;;;;;;25.53;13.73;;;;;;;0.59;64.23;99750.16;5030429;28;20189;-68
2022/03/01 09:01:16;;;;;;;25.37;12.93;;;;;;;0.71;64.28;99759.13;5030371;28;20187;-67
2022/03/01 09:03:44;;;;;;;27.05;14.77;;;;;;;0.58;64.36;99753.63;5029314;28;20952;-67
2022/03/01 09:06:10;;;;;;;24.27;13.77;;;;;;;0.54;65.26;99752.06;5029443;28;20224;-68
2022/03/01 09:08:40;;;;;;;31.07;13.20;;;;;;;0.64;64.74;99764.56;5030393;28;20181;-67
2022/03/01 09:11:07;;;;;;;27.23;13.70;;;;;;;0.59;65.74;99762.19;5030366;28;20231;-67
2022/03/01 09:13:35;;;;;;;27.63;13.97;;;;;;;0.72;66.24;99765.94;5029532;28;20207;-68
2022/03/01 09:16:02;;;;;;;35.37;13.63;;;;;;;0.80;66.29;99768.19;5029777;28;20259;-67
2022/03/01 09:18:29;;;;;;;24.83;12.23;;;;;;;0.82;64.84;99763.84;5030308;28;20196;-67
2022/03/01 09:20:56;;;;;;;24.67;12.33;;;;;;;0.83;64.96;99773.22;5030275;28;20189;-67
2022/03/01 09:23:23;;;;;;;24.53;13.13;;;;;;;0.79;65.83;99763.97;5029420;28;20217;-67
2022/03/01 09:25:50;;;;;;;28.50;13.00;;;;;;;0.93;66.03;99760.00;5029692;28;20643;-67
2022/03/01 09:28:18;;;;;;;26.27;13.50;;;;;;;1.15;65.51;99755.69;5030147;28;20189;-67
2022/03/01 09:30:46;;;;;;;24.23;13.20;;;;;;;1.24;64.94;99761.34;5030244;28;20264;-67
2022/03/01 09:33:13;;;;;;;29.70;13.40;;;;;;;1.23;64.86;99759.66;5029316;28;20186;-67
2022/03/01 09:35:40;;;;;;;29.70;13.67;;;;;;;1.30;65.70;99761.09;5029540;28;20291;-68
2022/03/01 09:38:07;;;;;;;26.17;13.20;;;;;;;1.57;64.20;99776.28;5030095;28;20194;-68
2022/03/01 09:40:34;;;;;;;29.30;13.13;;;;;;;1.70;63.62;99781.72;5030071;28;20187;-67
2022/03/01 09:43:01;;;;;;;27.90;13.40;;;;;;;1.63;63.43;99773.41;5029196;28;20201;-67
2022/03/01 09:45:28;;;;;;;26.73;12.43;;;;;;;1.83;64.00;99777.72;5029553;28;20252;-68
2022/03/01 09:47:57;;;;;;;25.57;13.03;;;;;;;1.84;63.48;99774.25;5030020;28;20188;-67
2022/03/01 09:50:27;;;;;;;28.13;12.87;;;;;;;1.86;62.55;99781.88;5029943;28;20191;-67
2022/03/01 09:52:55;;;;;;;27.87;12.43;;;;;;;1.83;62.03;99779.44;5027857;28;20677;-68
2022/03/01 09:55:22;;;;;;;25.90;12.77;;;;;;;1.96;62.37;99777.19;5029352;28;20212;-67
2022/03/01 09:57:49;;;;;;;26.80;12.30;;;;;;;2.08;60.49;99770.66;5028569;28;20192;-68
2022/03/01 10:00:16;;;;;;;27.53;12.90;;;;;;;2.05;61.37;99777.63;5029902;28;20194;-68
2022/03/01 10:02:45;;;;;;;25.67;12.67;;;;;;;2.27;60.44;99775.81;5029143;28;20194;-68
2022/03/01 10:05:14;;;;;;;25.70;13.13;;;;;;;2.45;59.81;99774.97;5029105;28;20228;-68
2022/03/01 10:07:48;;;;;;;27.07;12.20;;;;;;;2.69;57.02;99777.31;5029775;28;20210;-68
2022/03/01 10:10:17;;;;;;;30.00;13.47;;;;;;;2.55;58.05;99767.66;5029815;28;20204;-68
2022/03/01 10:12:52;;;;;;;24.43;12.33;;;;;;;2.87;57.47;99765.28;5029169;28;20188;-68
2022/03/01 10:15:20;;;;;;;23.93;12.00;;;;;;;3.12;56.12;99761.53;5029465;28;20658;-68
2022/03/01 10:17:47;;;;;;;26.00;12.60;;;;;;;3.22;56.37;99765.34;5031108;28;20184;-68
2022/03/01 10:20:18;;;;;;;28.33;12.87;;;;;;;3.34;55.53;99765.63;5033321;28;20224;-69
2022/03/01 10:22:46;;;;;;;25.87;12.47;;;;;;;3.57;55.49;99766.25;5032727;28;20184;-69
2022/03/01 10:25:16;;;;;;;25.10;12.43;;;;;;;3.89;55.80;99769.75;5032660;28;20224;-69
2022/03/01 10:27:43;;;;;;;24.10;12.43;;;;;;;4.07;52.97;99767.94;5033290;28;20194;-68
2022/03/01 10:30:11;;;;;;;24.37;12.53;;;;;;;4.04;53.38;99764.69;5033328;28;20203;-69
2022/03/01 10:32:39;;;;;;;27.90;13.00;;;;;;;4.23;53.68;99765.38;5032803;28;20190;-67
2022/03/01 10:35:08;;;;;;;28.05;14.70;;;;;;;4.32;52.60;99768.38;5030833;28;20452;-69
2022/03/01 10:37:38;;;;;;;29.03;13.30;;;;;;;4.23;52.60;99755.06;5032845;28;20196;-69
2022/03/01 10:40:18;;;;;;;23.10;13.37;;;;;;;4.20;53.48;99755.22;5032623;28;20205;-69
2022/03/01 10:42:45;;;;;;;23.13;12.83;;;;;;;4.47;52.87;99752.03;5031934;28;20188;-67
2022/03/01 10:45:13;;;;;;;20.97;12.03;;;;;;;4.56;54.76;99753.28;5029945;28;20226;-67
2022/03/01 10:47:40;;;;;;;23.10;12.23;;;;;;;4.44;53.28;99747.03;5026402;28;20200;-68
2022/03/01 10:50:10;;;;;;;22.77;12.07;;;;;;;4.53;52.18;99750.88;5028611;28;20663;-66
2022/03/01 10:52:40;;;;;;;28.20;12.43;;;;;;;4.68;51.21;99744.84;5032736;28;20196;-72
2022/03/01 10:55:21;;;;;;;24.87;12.60;;;;;;;4.56;52.24;99746.34;5029761;28;20223;-71
2022/03/01 10:58:06;;;;;;;21.13;12.47;;;;;;;4.56;51.27;99740.38;5031684;28;20192;-71
2022/03/01 11:00:35;;;;;;;24.87;12.30;;;;;;;4.65;50.88;99746.75;5032879;28;20559;-69
2022/03/01 11:03:03;;;;;;;22.90;12.20;;;;;;;4.64;49.82;99751.13;5032595;28;20188;-70
2022/03/01 11:05:31;;;;;;;28.47;13.67;;;;;;;4.30;52.73;99747.78;5032652;28;20600;-70
2022/03/01 11:08:03;;;;;;;21.90;12.33;;;;;;;4.34;52.32;99754.47;5033156;28;20196;-70
2022/03/01 11:10:32;;;;;;;24.90;12.40;;;;;;;4.26;52.66;99761.78;5033065;28;20204;-70
2022/03/01 11:13:00;;;;;;;23.17;12.80;;;;;;;3.92;54.60;99760.97;5032488;28;20196;-69
2022/03/01 11:15:44;;;;;;;22.60;12.93;;;;;;;3.83;54.63;99751.97;5032636;28;20301;-69
2022/03/01 11:18:23;;;;;;;26.27;12.87;;;;;;;3.94;54.40;99757.41;5032917;28;20191;-69
2022/03/01 11:20:51;;;;;;;27.70;12.33;;;;;;;4.03;53.44;99750.91;5032824;28;20250;-68
2022/03/01 11:23:24;;;;;;;26.33;13.37;;;;;;;4.27;53.46;99745.38;5032224;28;20188;-69
2022/03/01 11:25:53;;;;;;;23.03;12.57;;;;;;;4.46;53.70;99744.38;5032501;28;20215;-69
2022/03/01 11:28:39;;;;;;;26.20;12.00;;;;;;;4.62;51.72;99744.34;5032728;28;20584;-69
2022/03/01 11:31:18;;;;;;;21.67;11.13;;;;;;;4.67;50.15;99743.19;5032653;28;20189;-69
2022/03/01 11:33:55;;;;;;;22.67;11.60;;;;;;;4.86;49.96;99731.78;5032006;28;20193;-69